createdAt,value
2022-08-17T00:02:25.259Z,6.80
2022-08-17T00:04:54.240Z,6.90
2022-08-17T00:07:21.107Z,7.25
2022-08-17T00:09:48.179Z,6.90
2022-08-17T00:12:42.248Z,9.30
2022-08-17T00:15:01.878Z,9.45
2022-08-17T00:17:29.114Z,7.53
2022-08-17T00:19:55.967Z,7.78
2022-08-17T00:22:32.942Z,8.98
2022-08-17T00:25:04.087Z,11.35
2022-08-17T00:27:30.856Z,9.25
2022-08-17T00:29:57.634Z,7.80
2022-08-17T00:33:11.582Z,9.02
2022-08-17T00:35:16.043Z,7.35
2022-08-17T00:37:42.928Z,8.35
2022-08-17T00:40:14.136Z,8.52
2022-08-17T00:42:41.522Z,6.63
2022-08-17T00:45:10.792Z,8.00
2022-08-17T00:47:37.776Z,8.23
2022-08-17T00:50:09.017Z,8.30
2022-08-17T00:52:40.218Z,12.00
2022-08-17T00:55:08.623Z,7.93
2022-08-17T00:57:43.428Z,8.05
2022-08-17T01:00:18.110Z,7.65
2022-08-17T01:02:47.047Z,7.97
2022-08-17T01:05:20.857Z,8.23
2022-08-17T01:07:50.977Z,10.52
2022-08-17T01:11:00.533Z,9.38
2022-08-17T01:13:11.125Z,7.85
2022-08-17T01:15:46.087Z,10.13
2022-08-17T01:18:14.431Z,9.75
2022-08-17T01:20:48.508Z,13.50
2022-08-17T01:23:21.354Z,8.90
2022-08-17T01:25:51.443Z,9.20
2022-08-17T01:28:52.716Z,11.30
2022-08-17T01:31:08.735Z,8.52
2022-08-17T01:33:36.563Z,8.30
2022-08-17T01:36:06.289Z,11.00
2022-08-17T01:38:34.699Z,7.63
2022-08-17T01:41:06.692Z,8.63
2022-08-17T01:43:43.545Z,10.90
2022-08-17T01:46:21.808Z,8.68
2022-08-17T01:48:48.673Z,13.50
2022-08-17T01:51:16.161Z,9.75
2022-08-17T01:53:47.894Z,8.80
2022-08-17T01:58:45.658Z,10.18
2022-08-17T02:01:16.014Z,8.45
2022-08-17T02:03:53.519Z,10.55
2022-08-17T02:06:30.516Z,11.45
2022-08-17T02:09:02.938Z,10.55
2022-08-17T02:11:33.269Z,11.45
2022-08-17T02:14:02.850Z,10.65
2022-08-17T02:16:37.764Z,7.47
2022-08-17T02:19:15.861Z,15.38
2022-08-17T02:21:46.164Z,9.93
2022-08-17T02:25:00.784Z,9.93
2022-08-17T02:27:08.366Z,10.05
2022-08-17T02:29:35.216Z,12.35
2022-08-17T02:32:02.267Z,10.70
2022-08-17T02:34:30.062Z,10.50
2022-08-17T02:36:56.854Z,11.68
2022-08-17T02:39:23.927Z,11.75
2022-08-17T02:41:59.836Z,9.63
2022-08-17T02:44:39.221Z,9.55
2022-08-17T02:47:09.067Z,10.63
2022-08-17T02:49:36.476Z,10.38
2022-08-17T02:52:05.812Z,10.65
2022-08-17T02:54:39.941Z,9.55
2022-08-17T02:57:07.948Z,12.05
2022-08-17T02:59:34.720Z,8.90
2022-08-17T03:02:03.898Z,11.20
2022-08-17T03:04:31.227Z,14.18
2022-08-17T03:07:02.235Z,11.05
2022-08-17T03:09:29.084Z,10.48
2022-08-17T03:12:03.202Z,10.38
2022-08-17T03:14:32.206Z,9.10
2022-08-17T03:16:59.328Z,8.15
2022-08-17T03:19:26.145Z,13.00
2022-08-17T03:21:55.364Z,11.30
2022-08-17T03:24:28.795Z,9.57
2022-08-17T03:26:55.891Z,12.00
2022-08-17T03:29:22.751Z,9.75
2022-08-17T03:31:50.007Z,11.02
2022-08-17T03:34:17.137Z,11.75
2022-08-17T03:36:44.374Z,12.10
2022-08-17T03:39:11.210Z,10.75
2022-08-17T03:41:39.227Z,11.48
2022-08-17T03:44:06.150Z,12.40
2022-08-17T03:46:51.322Z,12.43
2022-08-17T03:49:36.897Z,11.98
2022-08-17T03:52:22.498Z,12.13
2022-08-17T03:55:07.984Z,11.13
2022-08-17T03:57:34.968Z,13.40
2022-08-17T04:00:01.896Z,12.70
2022-08-17T04:02:33.658Z,12.57
2022-08-17T04:07:31.224Z,10.80
2022-08-17T04:09:59.389Z,12.13
2022-08-17T04:12:30.849Z,10.27
2022-08-17T04:17:28.663Z,11.70
2022-08-17T04:19:56.298Z,9.02
2022-08-17T04:22:31.906Z,11.35
2022-08-17T04:25:05.643Z,10.30
2022-08-17T04:27:32.539Z,11.60
2022-08-17T04:29:59.385Z,11.60
2022-08-17T04:33:03.523Z,13.27
2022-08-17T04:35:17.384Z,10.32
2022-08-17T04:37:45.403Z,11.75
2022-08-17T04:40:31.143Z,11.40
2022-08-17T04:43:02.988Z,10.95
2022-08-17T04:48:00.162Z,11.82
2022-08-17T04:50:27.506Z,11.93
2022-08-17T04:52:54.368Z,12.05
2022-08-17T04:55:21.512Z,8.55
2022-08-17T04:57:48.364Z,14.85
2022-08-17T05:00:15.523Z,13.40
2022-08-17T05:02:50.922Z,10.80
2022-08-17T05:05:31.133Z,11.75
2022-08-17T05:08:01.566Z,9.05
2022-08-17T05:10:32.055Z,11.25
2022-08-17T05:13:00.235Z,14.40
2022-08-17T05:15:28.764Z,11.23
2022-08-17T05:18:00.406Z,12.65
2022-08-17T05:20:28.193Z,10.35
2022-08-17T05:22:58.011Z,12.95
2022-08-17T05:25:29.336Z,12.80
2022-08-17T05:27:59.859Z,11.23
2022-08-17T05:30:29.120Z,12.52
2022-08-17T05:33:01.781Z,8.73
2022-08-17T05:35:31.405Z,10.88
2022-08-17T05:37:58.579Z,11.30
2022-08-17T05:40:26.714Z,11.73
2022-08-17T05:43:11.343Z,11.90
2022-08-17T05:45:56.428Z,13.35
2022-08-17T05:48:35.495Z,10.90
2022-08-17T05:51:28.525Z,11.98
2022-08-17T05:54:14.496Z,10.68
2022-08-17T05:56:59.835Z,11.65
2022-08-17T05:59:41.744Z,10.90
2022-08-17T06:04:50.261Z,11.82
2022-08-17T06:07:22.942Z,10.35
2022-08-17T06:10:11.484Z,9.45
2022-08-17T06:13:19.827Z,13.15
2022-08-17T06:16:32.899Z,11.80
2022-08-17T06:19:02.426Z,11.98
2022-08-17T06:21:35.857Z,23.85
2022-08-17T06:24:07.766Z,13.32
2022-08-17T06:26:43.030Z,11.85
2022-08-17T06:29:28.967Z,10.57
2022-08-17T06:31:55.776Z,13.43
2022-08-17T06:34:22.703Z,12.98
2022-08-17T06:37:19.676Z,25.20
2022-08-17T06:40:21.848Z,12.23
2022-08-17T06:45:49.896Z,10.20
2022-08-17T06:48:24.885Z,10.70
2022-08-17T06:51:02.962Z,11.73
2022-08-17T06:53:42.808Z,12.02
2022-08-17T06:56:22.093Z,16.65
2022-08-17T06:58:49.935Z,10.68
2022-08-17T07:01:30.890Z,17.98
2022-08-17T07:04:13.515Z,10.97
2022-08-17T07:06:47.178Z,9.23
2022-08-17T07:09:29.366Z,13.02
2022-08-17T07:12:16.275Z,12.52
2022-08-17T07:14:51.777Z,12.45
2022-08-17T07:17:21.393Z,12.13
2022-08-17T07:20:12.935Z,7.53
2022-08-17T07:23:00.301Z,7.70
2022-08-17T07:25:28.621Z,9.18
2022-08-17T07:27:59.812Z,7.75
2022-08-17T07:30:45.865Z,9.25
2022-08-17T07:33:23.963Z,11.10
2022-08-17T07:35:52.134Z,10.93
2022-08-17T07:38:26.976Z,7.20
2022-08-17T07:41:03.680Z,8.13
2022-08-17T07:43:39.307Z,8.60
2022-08-17T07:46:36.948Z,9.82
2022-08-17T07:49:03.703Z,7.55
2022-08-17T07:51:37.948Z,9.27
2022-08-17T07:54:22.544Z,12.57
2022-08-17T07:56:52.519Z,9.15
2022-08-17T07:59:28.693Z,7.57
2022-08-17T08:02:03.761Z,7.80
2022-08-17T08:07:26.961Z,6.32
2022-08-17T08:09:59.619Z,14.30
2022-08-17T08:12:37.206Z,6.78
2022-08-17T08:15:15.311Z,7.90
2022-08-17T08:18:03.196Z,12.57
2022-08-17T08:20:53.279Z,13.13
2022-08-17T08:23:46.432Z,11.85
2022-08-17T08:26:31.634Z,8.15
2022-08-17T08:29:10.767Z,8.00
2022-08-17T08:31:43.336Z,8.13
2022-08-17T08:34:58.735Z,7.18
2022-08-17T08:37:32.577Z,8.35
2022-08-17T08:40:15.887Z,7.95
2022-08-17T08:42:57.521Z,6.78
2022-08-17T08:45:42.209Z,10.60
2022-08-17T08:48:57.988Z,8.60
2022-08-17T08:51:40.183Z,12.45
2022-08-17T08:54:28.443Z,7.38
2022-08-17T08:57:26.830Z,10.13
2022-08-17T09:00:12.812Z,7.67
2022-08-17T09:03:02.871Z,8.90
2022-08-17T09:06:06.100Z,13.75
2022-08-17T09:09:21.063Z,12.85
2022-08-17T09:12:02.140Z,11.77
2022-08-17T09:14:48.855Z,11.45
2022-08-17T09:17:21.294Z,9.55
2022-08-17T09:20:01.263Z,9.90
2022-08-17T09:22:34.403Z,9.77
2022-08-17T09:25:11.251Z,9.43
2022-08-17T09:28:03.636Z,19.02
2022-08-17T09:30:45.807Z,11.27
2022-08-17T09:33:17.679Z,8.35
2022-08-17T09:35:53.763Z,7.97
2022-08-17T09:38:39.470Z,8.73
2022-08-17T09:41:33.010Z,9.85
2022-08-17T09:44:23.090Z,7.70
2022-08-17T09:47:01.728Z,9.00
2022-08-17T09:49:35.651Z,9.68
2022-08-17T09:52:17.875Z,8.48
2022-08-17T09:54:46.093Z,7.10
2022-08-17T09:57:30.772Z,10.32
2022-08-17T10:00:21.378Z,8.40
2022-08-17T10:03:03.143Z,7.70
2022-08-17T10:05:48.682Z,8.55
2022-08-17T10:08:25.713Z,11.77
2022-08-17T10:11:50.285Z,10.82
2022-08-17T10:14:36.455Z,6.22
2022-08-17T10:17:24.125Z,9.30
2022-08-17T10:20:15.993Z,9.18
2022-08-17T10:23:09.706Z,6.97
2022-08-17T10:26:13.960Z,5.40
2022-08-17T10:28:50.158Z,10.20
2022-08-17T10:31:35.487Z,12.02
2022-08-17T10:34:36.192Z,4.50
2022-08-17T10:37:23.200Z,6.38
2022-08-17T10:40:08.541Z,8.93
2022-08-17T10:43:01.267Z,8.82
2022-08-17T10:45:36.834Z,4.28
2022-08-17T10:48:07.315Z,6.57
2022-08-17T10:50:53.080Z,5.70
2022-08-17T10:53:32.133Z,4.57
2022-08-17T10:56:13.926Z,6.18
2022-08-17T10:58:59.132Z,6.95
2022-08-17T11:01:38.028Z,6.35
2022-08-17T11:04:18.073Z,7.85
2022-08-17T11:07:01.976Z,6.32
2022-08-17T11:09:28.739Z,5.40
2022-08-17T11:11:58.706Z,21.60
2022-08-17T11:14:52.667Z,11.38
2022-08-17T11:17:58.202Z,3.00
2022-08-17T11:20:52.726Z,4.07
2022-08-17T11:23:33.484Z,5.55
2022-08-17T11:26:04.189Z,5.32
2022-08-17T11:28:52.766Z,4.20
2022-08-17T11:31:38.539Z,4.90
2022-08-17T11:34:30.239Z,4.63
2022-08-17T11:37:23.848Z,3.77
2022-08-17T11:40:16.965Z,3.92
2022-08-17T11:43:13.294Z,3.65
2022-08-17T11:46:02.277Z,4.80
2022-08-17T11:49:11.591Z,6.13
2022-08-17T11:52:33.206Z,4.55
2022-08-17T11:55:17.591Z,4.18
2022-08-17T11:57:59.774Z,5.20
2022-08-17T12:00:44.766Z,3.65
2022-08-17T12:03:55.662Z,13.68
2022-08-17T12:06:41.272Z,4.03
2022-08-17T12:09:15.866Z,5.43
2022-08-17T12:12:11.677Z,5.00
2022-08-17T12:15:08.020Z,4.63
2022-08-17T12:17:41.364Z,6.18
2022-08-17T12:20:32.053Z,3.75
2022-08-17T12:23:12.488Z,5.75
2022-08-17T12:25:57.565Z,6.77
2022-08-17T12:28:39.564Z,5.13
2022-08-17T12:31:13.220Z,5.93
2022-08-17T12:33:45.553Z,4.43
2022-08-17T12:36:16.983Z,7.47
2022-08-17T12:39:14.564Z,4.78
2022-08-17T12:41:51.806Z,17.33
2022-08-17T12:44:22.128Z,3.60
2022-08-17T12:46:51.529Z,6.40
2022-08-17T12:49:28.994Z,4.90
2022-08-17T12:52:16.829Z,5.25
2022-08-17T12:54:49.993Z,4.00
2022-08-17T12:57:25.664Z,11.20
2022-08-17T12:59:59.212Z,4.45
2022-08-17T13:02:39.431Z,4.57
2022-08-17T13:05:14.211Z,3.70
2022-08-17T13:07:44.859Z,7.95
2022-08-17T13:10:28.727Z,4.93
2022-08-17T13:13:04.751Z,6.78
2022-08-17T13:15:45.142Z,3.30
2022-08-17T13:18:38.998Z,5.63
2022-08-17T13:21:28.189Z,3.70
2022-08-17T13:23:57.708Z,3.47
2022-08-17T13:26:50.409Z,3.28
2022-08-17T13:29:32.087Z,5.38
2022-08-17T13:32:13.035Z,7.80
2022-08-17T13:35:01.652Z,3.97
2022-08-17T13:37:33.978Z,6.97
2022-08-17T13:40:21.854Z,4.25
2022-08-17T13:42:54.013Z,4.90
2022-08-17T13:45:36.258Z,4.18
2022-08-17T13:48:25.428Z,5.30
2022-08-17T13:50:55.033Z,3.92
2022-08-17T13:53:26.855Z,3.40
2022-08-17T13:56:00.729Z,3.45
2022-08-17T13:58:32.016Z,3.42
2022-08-17T14:01:19.358Z,3.15
2022-08-17T14:03:46.204Z,2.80
2022-08-17T14:06:51.419Z,6.93
2022-08-17T14:09:05.235Z,3.03
2022-08-17T14:11:32.076Z,3.08
2022-08-17T14:13:58.943Z,4.85
2022-08-17T14:16:25.845Z,5.65
2022-08-17T14:18:56.520Z,3.10
2022-08-17T14:21:24.164Z,4.80
2022-08-17T14:23:54.558Z,3.85
2022-08-17T14:26:21.884Z,4.28
2022-08-17T14:28:56.421Z,4.05
2022-08-17T14:31:23.967Z,4.82
2022-08-17T14:33:52.009Z,4.35
2022-08-17T14:36:18.846Z,4.25
2022-08-17T14:38:45.629Z,4.80
2022-08-17T14:41:12.456Z,3.30
2022-08-17T14:43:39.914Z,3.53
2022-08-17T14:46:06.967Z,3.47
2022-08-17T14:48:35.804Z,3.88
2022-08-17T14:51:04.201Z,3.90
2022-08-17T14:53:31.135Z,4.45
2022-08-17T14:55:57.959Z,3.40
2022-08-17T14:58:24.836Z,3.50
2022-08-17T15:00:51.616Z,3.83
2022-08-17T15:03:18.836Z,3.28
2022-08-17T15:05:46.842Z,3.45
2022-08-17T15:08:13.876Z,4.93
2022-08-17T15:10:40.683Z,3.70
2022-08-17T15:13:24.121Z,3.20
2022-08-17T15:15:51.275Z,5.38
2022-08-17T15:18:18.664Z,3.90
2022-08-17T15:20:48.513Z,3.00
2022-08-17T15:23:18.757Z,3.40
2022-08-17T15:25:47.484Z,6.77
2022-08-17T15:28:15.327Z,7.55
2022-08-17T15:30:44.734Z,4.38
2022-08-17T15:33:17.514Z,5.95
2022-08-17T15:35:44.728Z,5.75
2022-08-17T15:38:13.025Z,3.38
2022-08-17T15:40:46.152Z,3.53
2022-08-17T15:43:16.075Z,4.63
2022-08-17T15:45:43.508Z,4.68
2022-08-17T15:48:10.619Z,3.78
2022-08-17T15:50:37.864Z,4.50
2022-08-17T15:53:04.997Z,5.47
2022-08-17T15:55:33.366Z,4.07
2022-08-17T15:58:00.630Z,3.55
2022-08-17T16:00:29.263Z,3.22
2022-08-17T16:03:46.345Z,5.03
2022-08-17T16:05:44.756Z,4.20
2022-08-17T16:08:18.513Z,3.55
2022-08-17T16:10:48.214Z,2.92
2022-08-17T16:13:17.500Z,3.55
2022-08-17T16:15:51.069Z,4.75
2022-08-17T16:18:31.154Z,3.75
2022-08-17T16:21:22.679Z,3.03
2022-08-17T16:23:54.927Z,2.70
2022-08-17T16:26:23.237Z,3.17
2022-08-17T16:28:50.459Z,3.63
2022-08-17T16:31:17.372Z,4.28
2022-08-17T16:34:15.848Z,2.97
2022-08-17T16:36:32.120Z,7.50
2022-08-17T16:38:59.455Z,2.95
2022-08-17T16:41:45.276Z,3.40
2022-08-17T16:44:17.851Z,9.35
2022-08-17T16:46:46.247Z,2.72
2022-08-17T16:49:31.940Z,4.20
2022-08-17T16:52:03.050Z,4.55
2022-08-17T16:54:30.275Z,3.17
2022-08-17T16:56:57.109Z,5.85
2022-08-17T16:59:31.213Z,3.63
2022-08-17T17:02:10.917Z,4.85
2022-08-17T17:05:09.751Z,3.05
2022-08-17T17:07:45.733Z,3.72
2022-08-17T17:10:20.026Z,4.57
2022-08-17T17:13:01.910Z,3.88
2022-08-17T17:15:51.784Z,2.55
2022-08-17T17:18:21.619Z,3.72
2022-08-17T17:20:57.515Z,3.08
2022-08-17T17:24:01.719Z,5.40
2022-08-17T17:27:07.075Z,4.75
2022-08-17T17:29:52.223Z,5.63
2022-08-17T17:32:32.390Z,6.05
2022-08-17T17:35:10.580Z,3.25
2022-08-17T17:37:40.005Z,4.25
2022-08-17T17:40:14.523Z,3.83
2022-08-17T17:42:43.588Z,3.72
2022-08-17T17:45:22.367Z,4.53
2022-08-17T17:47:49.777Z,3.58
2022-08-17T17:50:19.943Z,5.40
2022-08-17T17:53:02.187Z,3.20
2022-08-17T17:55:39.278Z,3.30
2022-08-17T17:58:24.690Z,4.88
2022-08-17T18:00:59.309Z,3.67
2022-08-17T18:03:59.191Z,3.33
2022-08-17T18:06:45.243Z,5.70
2022-08-17T18:09:43.155Z,3.33
2022-08-17T18:12:42.970Z,4.10
2022-08-17T18:15:24.590Z,3.38
2022-08-17T18:18:11.517Z,3.33
2022-08-17T18:20:53.524Z,4.13
2022-08-17T18:23:27.959Z,4.18
2022-08-17T18:25:56.072Z,6.18
2022-08-17T18:28:33.539Z,3.78
2022-08-17T18:31:15.944Z,3.13
2022-08-17T18:33:45.963Z,3.60
2022-08-17T18:36:13.979Z,7.65
2022-08-17T18:38:42.999Z,6.00
2022-08-17T18:41:30.289Z,3.65
2022-08-17T18:44:04.175Z,4.38
2022-08-17T18:46:35.965Z,4.63
2022-08-17T18:49:07.764Z,4.32
2022-08-17T18:51:40.538Z,6.97
2022-08-17T18:54:18.349Z,6.13
2022-08-17T18:56:59.966Z,8.52
2022-08-17T19:02:19.446Z,9.15
2022-08-17T19:05:02.113Z,6.50
2022-08-17T19:07:33.143Z,4.78
2022-08-17T19:10:06.756Z,6.05
2022-08-17T19:12:52.969Z,4.55
2022-08-17T19:15:27.585Z,5.50
2022-08-17T19:18:00.676Z,5.35
2022-08-17T19:20:37.978Z,4.72
2022-08-17T19:23:24.880Z,5.05
2022-08-17T19:25:55.267Z,6.22
2022-08-17T19:28:45.014Z,4.10
2022-08-17T19:31:23.543Z,5.78
2022-08-17T19:33:50.885Z,5.53
2022-08-17T19:36:21.577Z,4.45
2022-08-17T19:38:53.139Z,12.07
2022-08-17T19:43:56.514Z,5.97
2022-08-17T19:46:32.152Z,5.07
2022-08-17T19:49:09.668Z,5.72
2022-08-17T19:51:56.118Z,4.63
2022-08-17T19:54:55.751Z,6.40
2022-08-17T19:57:47.607Z,7.55
2022-08-17T20:00:16.997Z,6.30
2022-08-17T20:02:53.148Z,9.13
2022-08-17T20:05:28.499Z,6.90
2022-08-17T20:08:42.705Z,6.60
2022-08-17T20:11:11.192Z,8.68
2022-08-17T20:13:49.820Z,8.25
2022-08-17T20:16:19.358Z,6.25
2022-08-17T20:18:59.313Z,4.72
2022-08-17T20:21:43.864Z,5.75
2022-08-17T20:24:28.018Z,9.32
2022-08-17T20:26:59.722Z,5.50
2022-08-17T20:29:58.441Z,4.68
2022-08-17T20:32:52.787Z,5.20
2022-08-17T20:35:26.320Z,5.97
2022-08-17T20:38:03.784Z,5.93
2022-08-17T20:40:53.854Z,6.93
2022-08-17T20:43:43.472Z,6.05
2022-08-17T20:46:31.845Z,5.05
2022-08-17T20:49:31.387Z,5.43
2022-08-17T20:52:10.057Z,4.38
2022-08-17T20:54:45.096Z,6.90
2022-08-17T20:57:36.596Z,6.55
2022-08-17T21:00:19.147Z,5.93
2022-08-17T21:02:50.902Z,7.05
2022-08-17T21:05:32.491Z,6.53
2022-08-17T21:08:13.219Z,8.52
2022-08-17T21:10:41.902Z,5.03
2022-08-17T21:13:10.228Z,7.47
2022-08-17T21:15:48.536Z,5.15
2022-08-17T21:18:49.427Z,5.63
2022-08-17T21:21:41.184Z,7.00
2022-08-17T21:24:32.801Z,5.70
2022-08-17T21:27:08.747Z,5.70
2022-08-17T21:30:11.933Z,8.40
2022-08-17T21:32:41.927Z,8.52
2022-08-17T21:35:24.655Z,6.70
2022-08-17T21:37:56.487Z,8.05
2022-08-17T21:40:29.671Z,8.73
2022-08-17T21:43:01.886Z,7.20
2022-08-17T21:45:38.852Z,6.53
2022-08-17T21:48:19.600Z,6.60
2022-08-17T21:51:01.696Z,9.00
2022-08-17T21:53:42.955Z,8.95
2022-08-17T21:56:12.094Z,6.70
2022-08-17T21:58:45.431Z,8.82
2022-08-17T22:01:40.481Z,8.45
2022-08-17T22:04:32.406Z,5.68
2022-08-17T22:07:11.996Z,9.98
2022-08-17T22:09:56.908Z,8.70
2022-08-17T22:12:25.696Z,8.57
2022-08-17T22:15:01.871Z,7.47
2022-08-17T22:17:46.338Z,8.63
2022-08-17T22:20:20.126Z,6.95
2022-08-17T22:23:08.667Z,5.75
2022-08-17T22:25:39.609Z,6.13
2022-08-17T22:28:09.150Z,10.85
2022-08-17T22:30:39.149Z,8.27
2022-08-17T22:33:29.693Z,8.18
2022-08-17T22:36:08.733Z,6.72
2022-08-17T22:38:37.632Z,14.97
2022-08-17T22:41:34.508Z,6.60
2022-08-17T22:44:14.350Z,6.50
2022-08-17T22:46:53.143Z,8.60
2022-08-17T22:49:58.508Z,7.15
2022-08-17T22:52:57.110Z,8.80
2022-08-17T22:55:43.268Z,7.03
2022-08-17T22:58:31.642Z,6.47
2022-08-17T23:01:32.423Z,7.28
2022-08-17T23:04:06.296Z,5.78
2022-08-17T23:06:34.920Z,6.55
2022-08-17T23:09:04.263Z,5.20
2022-08-17T23:11:49.845Z,6.35
2022-08-17T23:14:20.317Z,8.80
2022-08-17T23:16:49.012Z,6.53
2022-08-17T23:19:19.192Z,6.03
2022-08-17T23:21:47.379Z,7.50
2022-08-17T23:24:23.883Z,5.20
2022-08-17T23:26:50.690Z,5.55
2022-08-17T23:29:20.580Z,7.20
2022-08-17T23:31:49.231Z,7.88
2022-08-17T23:34:18.398Z,5.80
2022-08-17T23:36:53.169Z,5.03
2022-08-17T23:39:27.493Z,10.93
2022-08-17T23:41:59.376Z,10.05
2022-08-17T23:44:27.376Z,7.65
2022-08-17T23:46:54.811Z,7.18
2022-08-17T23:49:21.766Z,8.20
2022-08-17T23:51:49.398Z,6.22
2022-08-17T23:54:26.402Z,9.77
2022-08-17T23:56:53.335Z,6.53
2022-08-17T23:59:22.547Z,7.32
